sensor_id;sensor_type;location;lat;lon;timestamp;temperature;humidity
14727;DHT22;7454;51.256;8.176;2023-09-18T00:02:24;17.50;80.60
14727;DHT22;7454;51.256;8.176;2023-09-18T00:04:51;17.30;80.60
14727;DHT22;7454;51.256;8.176;2023-09-18T00:07:17;17.40;80.60
14727;DHT22;7454;51.256;8.176;2023-09-18T00:09:43;17.40;80.50
14727;DHT22;7454;51.256;8.176;2023-09-18T00:12:08;17.40;80.50
14727;DHT22;7454;51.256;8.176;2023-09-18T00:14:38;17.30;80.50
14727;DHT22;7454;51.256;8.176;2023-09-18T00:17:03;17.30;80.50
14727;DHT22;7454;51.256;8.176;2023-09-18T00:19:29;17.30;80.40
14727;DHT22;7454;51.256;8.176;2023-09-18T00:21:56;17.30;80.50
14727;DHT22;7454;51.256;8.176;2023-09-18T00:24:26;17.20;80.40
14727;DHT22;7454;51.256;8.176;2023-09-18T00:26:52;17.30;80.50
14727;DHT22;7454;51.256;8.176;2023-09-18T00:29:18;17.20;80.40
14727;DHT22;7454;51.256;8.176;2023-09-18T00:31:44;17.20;80.50
14727;DHT22;7454;51.256;8.176;2023-09-18T00:34:10;17.20;80.40
14727;DHT22;7454;51.256;8.176;2023-09-18T00:36:36;17.10;80.40
14727;DHT22;7454;51.256;8.176;2023-09-18T00:39:02;17.10;80.30
14727;DHT22;7454;51.256;8.176;2023-09-18T00:41:29;17.10;80.40
14727;DHT22;7454;51.256;8.176;2023-09-18T00:43:54;17.10;80.40
14727;DHT22;7454;51.256;8.176;2023-09-18T00:46:21;17.10;80.40
14727;DHT22;7454;51.256;8.176;2023-09-18T00:48:47;17.10;80.30
14727;DHT22;7454;51.256;8.176;2023-09-18T00:51:13;17.00;80.30
14727;DHT22;7454;51.256;8.176;2023-09-18T00:53:41;17.00;80.40
14727;DHT22;7454;51.256;8.176;2023-09-18T00:56:09;16.90;80.30
14727;DHT22;7454;51.256;8.176;2023-09-18T00:58:35;17.00;80.40
14727;DHT22;7454;51.256;8.176;2023-09-18T01:01:01;17.10;80.50
14727;DHT22;7454;51.256;8.176;2023-09-18T01:03:27;17.10;80.50
14727;DHT22;7454;51.256;8.176;2023-09-18T01:05:53;17.00;80.40
14727;DHT22;7454;51.256;8.176;2023-09-18T01:08:19;17.00;80.40
14727;DHT22;7454;51.256;8.176;2023-09-18T01:11:04;17.00;80.40
14727;DHT22;7454;51.256;8.176;2023-09-18T01:13:35;17.00;80.40
14727;DHT22;7454;51.256;8.176;2023-09-18T01:16:08;17.00;80.40
14727;DHT22;7454;51.256;8.176;2023-09-18T01:18:37;16.90;80.40
14727;DHT22;7454;51.256;8.176;2023-09-18T01:21:03;16.90;80.50
14727;DHT22;7454;51.256;8.176;2023-09-18T01:23:28;16.90;80.40
14727;DHT22;7454;51.256;8.176;2023-09-18T01:25:54;16.90;80.50
14727;DHT22;7454;51.256;8.176;2023-09-18T01:28:20;16.80;80.40
14727;DHT22;7454;51.256;8.176;2023-09-18T01:30:45;16.80;80.40
14727;DHT22;7454;51.256;8.176;2023-09-18T01:33:12;16.80;80.40
14727;DHT22;7454;51.256;8.176;2023-09-18T01:35:37;16.80;80.40
14727;DHT22;7454;51.256;8.176;2023-09-18T01:38:04;16.80;80.50
14727;DHT22;7454;51.256;8.176;2023-09-18T01:40:30;16.80;80.50
14727;DHT22;7454;51.256;8.176;2023-09-18T01:42:58;16.90;80.50
14727;DHT22;7454;51.256;8.176;2023-09-18T01:45:23;16.90;80.60
14727;DHT22;7454;51.256;8.176;2023-09-18T01:47:49;16.80;80.50
14727;DHT22;7454;51.256;8.176;2023-09-18T01:50:15;16.90;80.60
14727;DHT22;7454;51.256;8.176;2023-09-18T01:52:40;16.90;80.50
14727;DHT22;7454;51.256;8.176;2023-09-18T01:55:08;16.80;80.50
14727;DHT22;7454;51.256;8.176;2023-09-18T01:57:34;16.90;80.50
14727;DHT22;7454;51.256;8.176;2023-09-18T02:00:00;17.00;80.60
14727;DHT22;7454;51.256;8.176;2023-09-18T02:02:26;16.90;80.60
14727;DHT22;7454;51.256;8.176;2023-09-18T02:04:52;17.00;80.70
14727;DHT22;7454;51.256;8.176;2023-09-18T02:07:18;17.00;80.70
14727;DHT22;7454;51.256;8.176;2023-09-18T02:09:43;17.00;80.70
14727;DHT22;7454;51.256;8.176;2023-09-18T02:12:10;17.10;80.70
14727;DHT22;7454;51.256;8.176;2023-09-18T02:14:36;17.10;80.70
14727;DHT22;7454;51.256;8.176;2023-09-18T02:17:02;17.20;80.80
14727;DHT22;7454;51.256;8.176;2023-09-18T02:19:28;17.30;80.80
14727;DHT22;7454;51.256;8.176;2023-09-18T02:21:55;17.30;80.80
14727;DHT22;7454;51.256;8.176;2023-09-18T02:24:22;17.40;80.80
14727;DHT22;7454;51.256;8.176;2023-09-18T02:26:49;17.40;80.70
14727;DHT22;7454;51.256;8.176;2023-09-18T02:29:14;17.60;80.80
14727;DHT22;7454;51.256;8.176;2023-09-18T02:31:40;17.70;80.70
14727;DHT22;7454;51.256;8.176;2023-09-18T02:34:06;17.60;80.70
14727;DHT22;7454;51.256;8.176;2023-09-18T02:36:32;17.70;80.70
14727;DHT22;7454;51.256;8.176;2023-09-18T02:38:58;17.70;80.70
14727;DHT22;7454;51.256;8.176;2023-09-18T02:41:24;17.80;80.70
14727;DHT22;7454;51.256;8.176;2023-09-18T02:43:50;17.70;80.60
14727;DHT22;7454;51.256;8.176;2023-09-18T02:46:16;17.80;80.70
14727;DHT22;7454;51.256;8.176;2023-09-18T02:48:41;17.80;80.60
14727;DHT22;7454;51.256;8.176;2023-09-18T02:51:07;17.80;80.60
14727;DHT22;7454;51.256;8.176;2023-09-18T02:53:33;17.90;80.60
14727;DHT22;7454;51.256;8.176;2023-09-18T02:55:59;18.00;80.60
14727;DHT22;7454;51.256;8.176;2023-09-18T02:58:25;17.90;80.60
14727;DHT22;7454;51.256;8.176;2023-09-18T03:00:54;18.10;80.60
14727;DHT22;7454;51.256;8.176;2023-09-18T03:03:22;18.00;80.60
14727;DHT22;7454;51.256;8.176;2023-09-18T03:05:48;18.00;80.60
14727;DHT22;7454;51.256;8.176;2023-09-18T03:08:14;18.10;80.60
14727;DHT22;7454;51.256;8.176;2023-09-18T03:10:41;18.10;80.50
14727;DHT22;7454;51.256;8.176;2023-09-18T03:13:08;18.10;80.50
14727;DHT22;7454;51.256;8.176;2023-09-18T03:15:35;18.10;80.40
14727;DHT22;7454;51.256;8.176;2023-09-18T03:18:02;18.30;80.40
14727;DHT22;7454;51.256;8.176;2023-09-18T03:20:29;18.20;80.20
14727;DHT22;7454;51.256;8.176;2023-09-18T03:22:56;18.20;80.10
14727;DHT22;7454;51.256;8.176;2023-09-18T03:25:23;18.30;80.10
14727;DHT22;7454;51.256;8.176;2023-09-18T03:27:50;18.30;80.00
14727;DHT22;7454;51.256;8.176;2023-09-18T03:30:17;18.30;79.90
14727;DHT22;7454;51.256;8.176;2023-09-18T03:32:44;18.40;79.80
14727;DHT22;7454;51.256;8.176;2023-09-18T03:35:10;18.50;79.80
14727;DHT22;7454;51.256;8.176;2023-09-18T03:37:43;18.50;79.90
14727;DHT22;7454;51.256;8.176;2023-09-18T03:40:10;18.50;79.90
14727;DHT22;7454;51.256;8.176;2023-09-18T03:42:35;18.50;80.00
14727;DHT22;7454;51.256;8.176;2023-09-18T03:45:01;18.50;80.00
14727;DHT22;7454;51.256;8.176;2023-09-18T03:47:28;18.50;80.00
14727;DHT22;7454;51.256;8.176;2023-09-18T03:49:54;18.50;80.00
14727;DHT22;7454;51.256;8.176;2023-09-18T03:52:20;18.50;80.00
14727;DHT22;7454;51.256;8.176;2023-09-18T03:54:45;18.50;80.10
14727;DHT22;7454;51.256;8.176;2023-09-18T03:57:11;18.50;80.10
14727;DHT22;7454;51.256;8.176;2023-09-18T03:59:37;18.50;80.10
14727;DHT22;7454;51.256;8.176;2023-09-18T04:02:03;18.50;80.10
14727;DHT22;7454;51.256;8.176;2023-09-18T04:04:29;18.50;80.20
14727;DHT22;7454;51.256;8.176;2023-09-18T04:06:55;18.50;80.20
14727;DHT22;7454;51.256;8.176;2023-09-18T04:09:20;18.50;80.20
14727;DHT22;7454;51.256;8.176;2023-09-18T04:11:46;18.50;80.20
14727;DHT22;7454;51.256;8.176;2023-09-18T04:14:12;18.50;80.30
14727;DHT22;7454;51.256;8.176;2023-09-18T04:16:37;18.40;80.20
14727;DHT22;7454;51.256;8.176;2023-09-18T04:19:05;18.50;80.30
14727;DHT22;7454;51.256;8.176;2023-09-18T04:21:31;18.50;80.20
14727;DHT22;7454;51.256;8.176;2023-09-18T04:23:57;18.30;80.20
14727;DHT22;7454;51.256;8.176;2023-09-18T04:26:24;18.40;80.20
14727;DHT22;7454;51.256;8.176;2023-09-18T04:28:55;18.40;80.30
14727;DHT22;7454;51.256;8.176;2023-09-18T04:31:21;18.30;80.30
14727;DHT22;7454;51.256;8.176;2023-09-18T04:33:47;18.40;80.30
14727;DHT22;7454;51.256;8.176;2023-09-18T04:36:13;18.30;80.30
14727;DHT22;7454;51.256;8.176;2023-09-18T04:38:39;18.40;80.30
14727;DHT22;7454;51.256;8.176;2023-09-18T04:41:05;18.40;80.20
14727;DHT22;7454;51.256;8.176;2023-09-18T04:43:35;18.40;80.30
14727;DHT22;7454;51.256;8.176;2023-09-18T04:46:01;18.40;80.20
14727;DHT22;7454;51.256;8.176;2023-09-18T04:48:30;18.40;80.20
14727;DHT22;7454;51.256;8.176;2023-09-18T04:50:57;18.30;80.20
14727;DHT22;7454;51.256;8.176;2023-09-18T04:53:25;18.30;80.20
14727;DHT22;7454;51.256;8.176;2023-09-18T04:55:52;18.30;80.20
14727;DHT22;7454;51.256;8.176;2023-09-18T04:58:18;18.30;80.10
14727;DHT22;7454;51.256;8.176;2023-09-18T05:00:44;18.30;80.10
14727;DHT22;7454;51.256;8.176;2023-09-18T05:03:11;18.30;80.10
14727;DHT22;7454;51.256;8.176;2023-09-18T05:05:37;18.40;80.10
14727;DHT22;7454;51.256;8.176;2023-09-18T05:08:05;18.40;80.10
14727;DHT22;7454;51.256;8.176;2023-09-18T05:10:33;18.40;80.10
14727;DHT22;7454;51.256;8.176;2023-09-18T05:12:59;18.30;80.10
14727;DHT22;7454;51.256;8.176;2023-09-18T05:15:25;18.40;80.10
14727;DHT22;7454;51.256;8.176;2023-09-18T05:17:51;18.40;80.10
14727;DHT22;7454;51.256;8.176;2023-09-18T05:20:21;18.40;80.10
14727;DHT22;7454;51.256;8.176;2023-09-18T05:22:50;18.40;80.10
14727;DHT22;7454;51.256;8.176;2023-09-18T05:25:18;18.30;80.10
14727;DHT22;7454;51.256;8.176;2023-09-18T05:27:44;18.40;80.10
14727;DHT22;7454;51.256;8.176;2023-09-18T05:30:14;18.30;80.10
14727;DHT22;7454;51.256;8.176;2023-09-18T05:32:41;18.40;80.10
14727;DHT22;7454;51.256;8.176;2023-09-18T05:35:08;18.30;80.10
14727;DHT22;7454;51.256;8.176;2023-09-18T05:37:36;18.30;80.00
14727;DHT22;7454;51.256;8.176;2023-09-18T05:40:04;18.40;80.20
14727;DHT22;7454;51.256;8.176;2023-09-18T05:42:32;18.40;80.10
14727;DHT22;7454;51.256;8.176;2023-09-18T05:44:58;18.30;80.10
14727;DHT22;7454;51.256;8.176;2023-09-18T05:47:24;18.40;80.10
14727;DHT22;7454;51.256;8.176;2023-09-18T05:49:49;18.30;80.00
14727;DHT22;7454;51.256;8.176;2023-09-18T05:52:15;18.40;80.10
14727;DHT22;7454;51.256;8.176;2023-09-18T05:54:40;18.40;80.00
14727;DHT22;7454;51.256;8.176;2023-09-18T05:57:06;18.40;80.00
14727;DHT22;7454;51.256;8.176;2023-09-18T05:59:32;18.40;80.00
14727;DHT22;7454;51.256;8.176;2023-09-18T06:01:58;18.50;80.00
14727;DHT22;7454;51.256;8.176;2023-09-18T06:04:24;18.50;79.90
14727;DHT22;7454;51.256;8.176;2023-09-18T06:06:50;18.50;79.90
14727;DHT22;7454;51.256;8.176;2023-09-18T06:09:16;18.50;79.90
14727;DHT22;7454;51.256;8.176;2023-09-18T06:11:42;18.50;79.80
14727;DHT22;7454;51.256;8.176;2023-09-18T06:14:09;18.50;79.80
14727;DHT22;7454;51.256;8.176;2023-09-18T06:16:35;18.40;79.70
14727;DHT22;7454;51.256;8.176;2023-09-18T06:19:01;18.60;79.80
14727;DHT22;7454;51.256;8.176;2023-09-18T06:21:26;18.70;79.80
14727;DHT22;7454;51.256;8.176;2023-09-18T06:23:54;18.60;79.70
14727;DHT22;7454;51.256;8.176;2023-09-18T06:26:19;18.70;79.80
14727;DHT22;7454;51.256;8.176;2023-09-18T06:28:47;18.70;79.70
14727;DHT22;7454;51.256;8.176;2023-09-18T06:31:12;18.80;79.60
14727;DHT22;7454;51.256;8.176;2023-09-18T06:33:38;18.90;79.60
14727;DHT22;7454;51.256;8.176;2023-09-18T06:36:04;18.80;79.60
14727;DHT22;7454;51.256;8.176;2023-09-18T06:38:30;18.90;79.60
14727;DHT22;7454;51.256;8.176;2023-09-18T06:40:55;18.80;79.50
14727;DHT22;7454;51.256;8.176;2023-09-18T06:43:21;18.90;79.60
14727;DHT22;7454;51.256;8.176;2023-09-18T06:45:48;19.00;79.50
14727;DHT22;7454;51.256;8.176;2023-09-18T06:48:14;19.00;79.50
14727;DHT22;7454;51.256;8.176;2023-09-18T06:50:41;19.00;79.50
14727;DHT22;7454;51.256;8.176;2023-09-18T06:53:06;19.10;79.50
14727;DHT22;7454;51.256;8.176;2023-09-18T06:55:33;19.20;79.50
14727;DHT22;7454;51.256;8.176;2023-09-18T06:57:59;19.20;79.50
14727;DHT22;7454;51.256;8.176;2023-09-18T07:00:24;19.20;79.40
14727;DHT22;7454;51.256;8.176;2023-09-18T07:02:50;19.30;79.50
14727;DHT22;7454;51.256;8.176;2023-09-18T07:05:16;19.30;79.50
14727;DHT22;7454;51.256;8.176;2023-09-18T07:07:42;19.30;79.40
14727;DHT22;7454;51.256;8.176;2023-09-18T07:10:08;19.30;79.30
14727;DHT22;7454;51.256;8.176;2023-09-18T07:12:33;19.30;79.30
14727;DHT22;7454;51.256;8.176;2023-09-18T07:15:00;19.20;79.30
14727;DHT22;7454;51.256;8.176;2023-09-18T07:17:29;19.20;79.30
14727;DHT22;7454;51.256;8.176;2023-09-18T07:19:55;19.20;79.30
14727;DHT22;7454;51.256;8.176;2023-09-18T07:22:20;19.20;79.30
14727;DHT22;7454;51.256;8.176;2023-09-18T07:24:46;19.20;79.40
14727;DHT22;7454;51.256;8.176;2023-09-18T07:27:12;19.10;79.30
14727;DHT22;7454;51.256;8.176;2023-09-18T07:29:38;19.10;79.30
14727;DHT22;7454;51.256;8.176;2023-09-18T07:32:04;19.10;79.30
14727;DHT22;7454;51.256;8.176;2023-09-18T07:34:30;19.10;79.30
14727;DHT22;7454;51.256;8.176;2023-09-18T07:36:59;19.10;79.30
14727;DHT22;7454;51.256;8.176;2023-09-18T07:39:25;19.20;79.40
14727;DHT22;7454;51.256;8.176;2023-09-18T07:41:51;19.10;79.40
14727;DHT22;7454;51.256;8.176;2023-09-18T07:44:21;19.10;79.40
14727;DHT22;7454;51.256;8.176;2023-09-18T07:46:47;19.10;79.40
14727;DHT22;7454;51.256;8.176;2023-09-18T07:49:13;19.10;79.40
14727;DHT22;7454;51.256;8.176;2023-09-18T07:51:39;19.10;79.40
14727;DHT22;7454;51.256;8.176;2023-09-18T07:54:06;19.10;79.40
14727;DHT22;7454;51.256;8.176;2023-09-18T07:56:33;19.00;79.40
14727;DHT22;7454;51.256;8.176;2023-09-18T07:59:00;19.00;79.40
14727;DHT22;7454;51.256;8.176;2023-09-18T08:01:26;19.00;79.40
14727;DHT22;7454;51.256;8.176;2023-09-18T08:03:53;19.00;79.40
14727;DHT22;7454;51.256;8.176;2023-09-18T08:06:18;19.00;79.50
14727;DHT22;7454;51.256;8.176;2023-09-18T08:08:44;19.10;79.50
14727;DHT22;7454;51.256;8.176;2023-09-18T08:11:10;19.00;79.50
14727;DHT22;7454;51.256;8.176;2023-09-18T08:13:36;19.00;79.50
14727;DHT22;7454;51.256;8.176;2023-09-18T08:16:03;19.00;79.50
14727;DHT22;7454;51.256;8.176;2023-09-18T08:18:31;19.00;79.50
14727;DHT22;7454;51.256;8.176;2023-09-18T08:20:57;18.90;79.40
14727;DHT22;7454;51.256;8.176;2023-09-18T08:23:24;19.00;79.50
14727;DHT22;7454;51.256;8.176;2023-09-18T08:25:50;19.00;79.50
14727;DHT22;7454;51.256;8.176;2023-09-18T08:28:17;19.10;79.60
14727;DHT22;7454;51.256;8.176;2023-09-18T08:30:42;19.00;79.60
14727;DHT22;7454;51.256;8.176;2023-09-18T08:33:13;19.00;79.60
14727;DHT22;7454;51.256;8.176;2023-09-18T08:35:39;19.00;79.50
14727;DHT22;7454;51.256;8.176;2023-09-18T08:38:05;19.10;79.50
14727;DHT22;7454;51.256;8.176;2023-09-18T08:40:31;19.10;79.50
14727;DHT22;7454;51.256;8.176;2023-09-18T08:42:58;19.10;79.50
14727;DHT22;7454;51.256;8.176;2023-09-18T08:45:52;19.10;79.60
14727;DHT22;7454;51.256;8.176;2023-09-18T08:48:18;19.10;79.60
14727;DHT22;7454;51.256;8.176;2023-09-18T08:50:44;19.10;79.60
14727;DHT22;7454;51.256;8.176;2023-09-18T08:53:11;19.10;79.60
14727;DHT22;7454;51.256;8.176;2023-09-18T08:55:37;19.20;79.60
14727;DHT22;7454;51.256;8.176;2023-09-18T08:58:02;19.20;79.60
14727;DHT22;7454;51.256;8.176;2023-09-18T09:00:28;19.20;79.50
14727;DHT22;7454;51.256;8.176;2023-09-18T09:02:54;19.20;79.60
14727;DHT22;7454;51.256;8.176;2023-09-18T09:05:20;19.20;79.50
14727;DHT22;7454;51.256;8.176;2023-09-18T09:07:48;19.30;79.60
14727;DHT22;7454;51.256;8.176;2023-09-18T09:10:14;19.30;79.50
14727;DHT22;7454;51.256;8.176;2023-09-18T09:13:13;19.40;79.50
14727;DHT22;7454;51.256;8.176;2023-09-18T09:15:33;19.40;79.50
14727;DHT22;7454;51.256;8.176;2023-09-18T09:18:03;19.40;79.50
14727;DHT22;7454;51.256;8.176;2023-09-18T09:20:32;19.40;79.50
14727;DHT22;7454;51.256;8.176;2023-09-18T09:23:04;19.40;79.50
14727;DHT22;7454;51.256;8.176;2023-09-18T09:25:32;19.50;79.50
14727;DHT22;7454;51.256;8.176;2023-09-18T09:28:05;19.50;79.50
14727;DHT22;7454;51.256;8.176;2023-09-18T09:30:33;19.60;79.40
14727;DHT22;7454;51.256;8.176;2023-09-18T09:33:02;19.70;79.40
14727;DHT22;7454;51.256;8.176;2023-09-18T09:35:30;19.70;79.40
14727;DHT22;7454;51.256;8.176;2023-09-18T09:38:00;19.70;79.40
14727;DHT22;7454;51.256;8.176;2023-09-18T09:40:38;19.70;79.20
14727;DHT22;7454;51.256;8.176;2023-09-18T09:43:04;19.80;79.30
14727;DHT22;7454;51.256;8.176;2023-09-18T09:45:33;19.80;79.30
14727;DHT22;7454;51.256;8.176;2023-09-18T09:48:01;19.90;79.20
14727;DHT22;7454;51.256;8.176;2023-09-18T09:50:29;19.90;79.20
14727;DHT22;7454;51.256;8.176;2023-09-18T09:52:55;19.90;79.10
14727;DHT22;7454;51.256;8.176;2023-09-18T09:55:23;20.00;79.30
14727;DHT22;7454;51.256;8.176;2023-09-18T09:58:04;20.00;79.20
14727;DHT22;7454;51.256;8.176;2023-09-18T10:00:46;20.00;79.10
14727;DHT22;7454;51.256;8.176;2023-09-18T10:03:16;19.90;79.00
14727;DHT22;7454;51.256;8.176;2023-09-18T10:05:44;20.00;79.10
14727;DHT22;7454;51.256;8.176;2023-09-18T10:08:12;20.10;79.20
14727;DHT22;7454;51.256;8.176;2023-09-18T10:10:48;20.10;79.10
14727;DHT22;7454;51.256;8.176;2023-09-18T10:13:21;20.10;79.00
14727;DHT22;7454;51.256;8.176;2023-09-18T10:15:52;20.20;79.00
14727;DHT22;7454;51.256;8.176;2023-09-18T10:18:28;20.30;79.00
14727;DHT22;7454;51.256;8.176;2023-09-18T10:21:30;20.40;79.10
14727;DHT22;7454;51.256;8.176;2023-09-18T10:26:51;20.50;78.90
14727;DHT22;7454;51.256;8.176;2023-09-18T10:29:24;20.50;78.80
14727;DHT22;7454;51.256;8.176;2023-09-18T10:31:53;20.50;78.80
14727;DHT22;7454;51.256;8.176;2023-09-18T10:34:20;20.60;78.80
14727;DHT22;7454;51.256;8.176;2023-09-18T10:36:48;20.50;78.80
14727;DHT22;7454;51.256;8.176;2023-09-18T10:39:14;20.50;78.70
14727;DHT22;7454;51.256;8.176;2023-09-18T10:41:48;20.50;78.70
14727;DHT22;7454;51.256;8.176;2023-09-18T10:44:16;20.50;78.60
14727;DHT22;7454;51.256;8.176;2023-09-18T10:46:52;20.50;78.70
14727;DHT22;7454;51.256;8.176;2023-09-18T10:49:18;20.40;78.60
14727;DHT22;7454;51.256;8.176;2023-09-18T10:51:45;20.40;78.70
14727;DHT22;7454;51.256;8.176;2023-09-18T10:54:15;20.40;78.60
14727;DHT22;7454;51.256;8.176;2023-09-18T10:56:42;20.40;78.80
14727;DHT22;7454;51.256;8.176;2023-09-18T10:59:08;20.40;78.70
14727;DHT22;7454;51.256;8.176;2023-09-18T11:01:34;20.40;78.80
14727;DHT22;7454;51.256;8.176;2023-09-18T11:04:04;20.40;78.80
14727;DHT22;7454;51.256;8.176;2023-09-18T11:09:26;20.50;78.80
14727;DHT22;7454;51.256;8.176;2023-09-18T11:11:53;20.60;78.70
14727;DHT22;7454;51.256;8.176;2023-09-18T11:14:23;20.60;78.70
14727;DHT22;7454;51.256;8.176;2023-09-18T11:22:39;20.70;78.50
14727;DHT22;7454;51.256;8.176;2023-09-18T11:28:07;20.70;78.60
14727;DHT22;7454;51.256;8.176;2023-09-18T11:30:37;20.80;78.60
14727;DHT22;7454;51.256;8.176;2023-09-18T11:33:04;20.80;78.60
14727;DHT22;7454;51.256;8.176;2023-09-18T11:35:31;20.80;78.60
14727;DHT22;7454;51.256;8.176;2023-09-18T11:38:03;20.70;78.60
14727;DHT22;7454;51.256;8.176;2023-09-18T11:40:31;20.70;78.60
14727;DHT22;7454;51.256;8.176;2023-09-18T11:43:22;20.80;78.60
14727;DHT22;7454;51.256;8.176;2023-09-18T11:45:54;20.80;78.50
14727;DHT22;7454;51.256;8.176;2023-09-18T11:48:24;20.80;78.50
14727;DHT22;7454;51.256;8.176;2023-09-18T11:50:53;20.80;78.60
14727;DHT22;7454;51.256;8.176;2023-09-18T11:53:20;20.80;78.50
14727;DHT22;7454;51.256;8.176;2023-09-18T11:55:46;20.80;78.70
14727;DHT22;7454;51.256;8.176;2023-09-18T11:58:12;20.80;78.70
14727;DHT22;7454;51.256;8.176;2023-09-18T12:00:38;20.80;78.50
14727;DHT22;7454;51.256;8.176;2023-09-18T12:03:14;20.80;78.50
14727;DHT22;7454;51.256;8.176;2023-09-18T12:08:22;20.90;78.60
14727;DHT22;7454;51.256;8.176;2023-09-18T12:10:52;21.00;78.60
14727;DHT22;7454;51.256;8.176;2023-09-18T12:13:21;21.00;78.60
14727;DHT22;7454;51.256;8.176;2023-09-18T12:15:47;21.10;78.40
14727;DHT22;7454;51.256;8.176;2023-09-18T12:18:14;21.10;78.50
14727;DHT22;7454;51.256;8.176;2023-09-18T12:20:47;21.20;78.40
14727;DHT22;7454;51.256;8.176;2023-09-18T12:23:14;21.30;78.40
14727;DHT22;7454;51.256;8.176;2023-09-18T12:25:41;21.30;78.30
14727;DHT22;7454;51.256;8.176;2023-09-18T12:28:10;21.40;78.40
14727;DHT22;7454;51.256;8.176;2023-09-18T12:30:36;21.50;78.30
14727;DHT22;7454;51.256;8.176;2023-09-18T12:33:02;21.50;78.40
14727;DHT22;7454;51.256;8.176;2023-09-18T12:35:29;21.50;78.40
14727;DHT22;7454;51.256;8.176;2023-09-18T12:37:56;21.50;78.30
14727;DHT22;7454;51.256;8.176;2023-09-18T12:40:27;21.50;78.30
14727;DHT22;7454;51.256;8.176;2023-09-18T12:42:56;21.50;78.20
14727;DHT22;7454;51.256;8.176;2023-09-18T12:45:26;21.60;78.30
14727;DHT22;7454;51.256;8.176;2023-09-18T12:47:56;21.60;78.30
14727;DHT22;7454;51.256;8.176;2023-09-18T12:50:22;21.60;78.30
14727;DHT22;7454;51.256;8.176;2023-09-18T12:52:49;21.60;78.20
14727;DHT22;7454;51.256;8.176;2023-09-18T12:55:21;21.60;78.20
14727;DHT22;7454;51.256;8.176;2023-09-18T12:57:49;21.60;78.10
14727;DHT22;7454;51.256;8.176;2023-09-18T13:00:17;21.60;78.20
14727;DHT22;7454;51.256;8.176;2023-09-18T13:02:48;21.60;78.20
14727;DHT22;7454;51.256;8.176;2023-09-18T13:05:20;21.60;78.20
14727;DHT22;7454;51.256;8.176;2023-09-18T13:07:50;21.60;78.20
14727;DHT22;7454;51.256;8.176;2023-09-18T13:10:16;21.60;78.20
14727;DHT22;7454;51.256;8.176;2023-09-18T13:12:51;21.50;78.10
14727;DHT22;7454;51.256;8.176;2023-09-18T13:15:29;21.60;78.10
14727;DHT22;7454;51.256;8.176;2023-09-18T13:18:09;21.60;78.20
14727;DHT22;7454;51.256;8.176;2023-09-18T13:20:35;21.60;78.10
14727;DHT22;7454;51.256;8.176;2023-09-18T13:23:01;21.70;78.20
14727;DHT22;7454;51.256;8.176;2023-09-18T13:25:32;21.80;78.10
14727;DHT22;7454;51.256;8.176;2023-09-18T13:28:00;21.90;78.20
14727;DHT22;7454;51.256;8.176;2023-09-18T13:30:27;21.90;78.00
14727;DHT22;7454;51.256;8.176;2023-09-18T13:33:01;21.90;77.90
14727;DHT22;7454;51.256;8.176;2023-09-18T13:35:34;21.90;77.80
14727;DHT22;7454;51.256;8.176;2023-09-18T13:38:01;21.90;77.70
14727;DHT22;7454;51.256;8.176;2023-09-18T13:40:29;21.90;77.80
14727;DHT22;7454;51.256;8.176;2023-09-18T13:42:55;21.90;77.60
14727;DHT22;7454;51.256;8.176;2023-09-18T13:45:20;21.80;77.70
14727;DHT22;7454;51.256;8.176;2023-09-18T13:47:46;21.80;77.70
14727;DHT22;7454;51.256;8.176;2023-09-18T13:50:14;21.80;77.70
14727;DHT22;7454;51.256;8.176;2023-09-18T13:52:40;21.80;77.60
14727;DHT22;7454;51.256;8.176;2023-09-18T13:55:05;21.80;77.70
14727;DHT22;7454;51.256;8.176;2023-09-18T13:57:32;21.80;77.60
14727;DHT22;7454;51.256;8.176;2023-09-18T13:59:59;21.70;77.60
14727;DHT22;7454;51.256;8.176;2023-09-18T14:02:25;21.70;77.50
14727;DHT22;7454;51.256;8.176;2023-09-18T14:04:53;21.70;77.50
14727;DHT22;7454;51.256;8.176;2023-09-18T14:07:19;21.70;77.60
14727;DHT22;7454;51.256;8.176;2023-09-18T14:09:45;21.70;77.60
14727;DHT22;7454;51.256;8.176;2023-09-18T14:12:14;21.80;77.60
14727;DHT22;7454;51.256;8.176;2023-09-18T14:14:41;21.80;77.50
14727;DHT22;7454;51.256;8.176;2023-09-18T14:17:07;21.80;77.80
14727;DHT22;7454;51.256;8.176;2023-09-18T14:19:34;21.80;77.70
14727;DHT22;7454;51.256;8.176;2023-09-18T14:22:00;21.80;77.50
14727;DHT22;7454;51.256;8.176;2023-09-18T14:24:29;21.80;77.50
14727;DHT22;7454;51.256;8.176;2023-09-18T14:26:55;21.80;77.40
14727;DHT22;7454;51.256;8.176;2023-09-18T14:29:21;21.70;77.40
14727;DHT22;7454;51.256;8.176;2023-09-18T14:31:47;21.70;77.30
14727;DHT22;7454;51.256;8.176;2023-09-18T14:34:13;21.70;77.30
14727;DHT22;7454;51.256;8.176;2023-09-18T14:36:39;21.70;77.40
14727;DHT22;7454;51.256;8.176;2023-09-18T14:39:05;21.70;77.20
14727;DHT22;7454;51.256;8.176;2023-09-18T14:41:34;21.70;77.30
14727;DHT22;7454;51.256;8.176;2023-09-18T14:44:01;21.70;77.40
14727;DHT22;7454;51.256;8.176;2023-09-18T14:46:29;21.70;77.40
14727;DHT22;7454;51.256;8.176;2023-09-18T14:48:55;21.60;77.30
14727;DHT22;7454;51.256;8.176;2023-09-18T14:51:21;21.60;77.40
14727;DHT22;7454;51.256;8.176;2023-09-18T14:53:46;21.60;77.30
14727;DHT22;7454;51.256;8.176;2023-09-18T14:56:12;21.60;77.40
14727;DHT22;7454;51.256;8.176;2023-09-18T14:58:41;21.60;77.30
14727;DHT22;7454;51.256;8.176;2023-09-18T15:01:06;21.60;77.40
14727;DHT22;7454;51.256;8.176;2023-09-18T15:03:32;21.60;77.30
14727;DHT22;7454;51.256;8.176;2023-09-18T15:05:58;21.70;77.40
14727;DHT22;7454;51.256;8.176;2023-09-18T15:08:23;21.70;77.40
14727;DHT22;7454;51.256;8.176;2023-09-18T15:10:49;21.70;77.30
14727;DHT22;7454;51.256;8.176;2023-09-18T15:13:15;21.60;77.20
14727;DHT22;7454;51.256;8.176;2023-09-18T15:15:41;21.70;77.30
14727;DHT22;7454;51.256;8.176;2023-09-18T15:18:07;21.60;77.10
14727;DHT22;7454;51.256;8.176;2023-09-18T15:20:34;21.60;77.30
14727;DHT22;7454;51.256;8.176;2023-09-18T15:22:59;21.60;77.30
14727;DHT22;7454;51.256;8.176;2023-09-18T15:25:25;21.60;77.40
14727;DHT22;7454;51.256;8.176;2023-09-18T15:27:51;21.50;77.20
14727;DHT22;7454;51.256;8.176;2023-09-18T15:30:17;21.50;77.20
14727;DHT22;7454;51.256;8.176;2023-09-18T15:32:49;21.50;77.20
14727;DHT22;7454;51.256;8.176;2023-09-18T15:35:17;21.50;77.10
14727;DHT22;7454;51.256;8.176;2023-09-18T15:37:43;21.50;77.20
14727;DHT22;7454;51.256;8.176;2023-09-18T15:40:09;21.50;77.10
14727;DHT22;7454;51.256;8.176;2023-09-18T15:42:36;21.50;77.20
14727;DHT22;7454;51.256;8.176;2023-09-18T15:45:07;21.40;77.20
14727;DHT22;7454;51.256;8.176;2023-09-18T15:47:34;21.40;77.10
14727;DHT22;7454;51.256;8.176;2023-09-18T15:50:00;21.40;77.20
14727;DHT22;7454;51.256;8.176;2023-09-18T15:52:25;21.40;77.30
14727;DHT22;7454;51.256;8.176;2023-09-18T15:54:51;21.30;77.40
14727;DHT22;7454;51.256;8.176;2023-09-18T15:57:17;21.30;77.30
14727;DHT22;7454;51.256;8.176;2023-09-18T15:59:43;21.30;77.30
14727;DHT22;7454;51.256;8.176;2023-09-18T16:02:09;21.30;77.20
14727;DHT22;7454;51.256;8.176;2023-09-18T16:04:35;21.20;77.40